Time;durP1;ratioP1;P1;durP2;ratioP2;P2;SDS_P1;SDS_P2;PMS_P1;PMS_P2;Temp;Humidity;BMP_temperature;BMP_pressure;BME280_temperature;BME280_humidity;BME280_pressure;Samples;Min_cycle;Max_cycle;Signal;HPM_P1;HPM_P2
2022/09/01 00:00:29;;;;;;;5.03;1.10;;;17.00;1.00;;;;;;5028106;28;20458;-82
2022/09/01 00:02:56;;;;;;;4.90;1.00;;;17.00;1.00;;;;;;5009676;28;20463;-79
2022/09/01 00:05:28;;;;;;;5.53;1.27;;;17.00;1.00;;;;;;5000714;28;21020;-80
2022/09/01 00:07:55;;;;;;;5.20;1.40;;;17.00;1.00;;;;;;5008277;28;20459;-78
2022/09/01 00:10:28;;;;;;;5.17;1.10;;;17.00;1.00;;;;;;5000351;28;20451;-83
2022/09/01 00:12:55;;;;;;;7.17;1.73;;;16.90;1.00;;;;;;5018006;28;20423;-83
2022/09/01 00:15:27;;;;;;;5.20;1.40;;;16.90;1.00;;;;;;5009127;28;20516;-81
2022/09/01 00:17:54;;;;;;;5.60;1.30;;;17.00;1.00;;;;;;5010080;28;20469;-83
2022/09/01 00:20:21;;;;;;;5.00;1.20;;;16.90;1.00;;;;;;4998235;28;20427;-84
2022/09/01 00:22:49;;;;;;;5.53;1.10;;;16.90;1.00;;;;;;4998615;28;22145;-79
2022/09/01 00:25:18;;;;;;;5.70;1.20;;;16.90;1.00;;;;;;5005760;28;20473;-84
2022/09/01 00:27:50;;;;;;;4.90;0.90;;;16.90;1.00;;;;;;5007642;28;21349;-83
2022/09/01 00:30:19;;;;;;;5.40;1.10;;;16.90;1.00;;;;;;4995729;28;20492;-83
2022/09/01 00:32:51;;;;;;;5.73;1.37;;;16.90;1.00;;;;;;4997680;28;20436;-83
2022/09/01 00:35:19;;;;;;;5.10;0.83;;;16.90;1.00;;;;;;5007711;28;20568;-81
2022/09/01 00:37:49;;;;;;;6.40;1.17;;;16.90;1.00;;;;;;5008751;28;20439;-81
2022/09/01 00:40:18;;;;;;;4.80;1.00;;;16.90;1.00;;;;;;5010485;28;20454;-83
2022/09/01 00:42:52;;;;;;;4.63;1.20;;;16.90;1.00;;;;;;4992063;28;20467;-83
2022/09/01 00:45:28;;;;;;;5.30;1.07;;;16.90;1.00;;;;;;5001771;28;20529;-82
2022/09/01 00:47:56;;;;;;;5.53;1.10;;;16.90;1.00;;;;;;5001863;28;20464;-84
2022/09/01 00:50:29;;;;;;;5.30;1.33;;;16.90;1.00;;;;;;5004516;28;20503;-82
2022/09/01 00:52:59;;;;;;;5.03;1.27;;;16.90;1.00;;;;;;5001925;28;20484;-84
2022/09/01 00:55:31;;;;;;;5.03;1.30;;;16.90;1.00;;;;;;5003237;28;20462;-83
2022/09/01 00:58:01;;;;;;;5.73;1.33;;;16.90;1.00;;;;;;5000706;28;20485;-80
2022/09/01 01:00:31;;;;;;;5.10;1.20;;;16.90;1.00;;;;;;5009052;28;20461;-82
2022/09/01 01:03:08;;;;;;;6.90;1.20;;;16.90;1.00;;;;;;5000854;28;20539;-84
2022/09/01 01:05:40;;;;;;;4.90;1.17;;;16.90;1.00;;;;;;4988073;28;20483;-82
2022/09/01 01:08:10;;;;;;;5.77;1.53;;;16.90;1.00;;;;;;5006846;28;20419;-82
2022/09/01 01:10:40;;;;;;;5.17;0.90;;;16.90;1.00;;;;;;5000757;28;20459;-83
2022/09/01 01:13:14;;;;;;;5.97;1.40;;;16.80;1.00;;;;;;4998715;28;20430;-83
2022/09/01 01:15:42;;;;;;;4.70;1.20;;;16.80;1.00;;;;;;5012373;28;20435;-79
2022/09/01 01:18:16;;;;;;;4.80;1.10;;;16.80;1.00;;;;;;4995844;28;20423;-82
2022/09/01 01:23:39;;;;;;;4.80;1.20;;;16.80;1.00;;;;;;5002171;28;20420;-84
2022/09/01 01:26:20;;;;;;;4.90;1.27;;;16.80;1.00;;;;;;5002936;28;20427;-82
2022/09/01 01:29:02;;;;;;;5.80;1.13;;;16.70;1.00;;;;;;5002262;28;20503;-81
2022/09/01 01:31:31;;;;;;;4.77;1.13;;;16.70;1.00;;;;;;4999663;28;20465;-82
2022/09/01 01:34:00;;;;;;;6.47;1.27;;;16.70;1.00;;;;;;5009503;28;20419;-82
2022/09/01 01:36:34;;;;;;;4.87;1.30;;;16.60;1.00;;;;;;5005987;28;20419;-82
2022/09/01 01:39:04;;;;;;;4.80;0.90;;;16.60;1.00;;;;;;5002727;28;20459;-83
2022/09/01 01:41:34;;;;;;;5.20;1.17;;;16.60;1.00;;;;;;5007106;28;20431;-82
2022/09/01 01:44:04;;;;;;;5.40;1.40;;;16.50;1.00;;;;;;5003741;28;20422;-82
2022/09/01 01:46:35;;;;;;;6.80;1.67;;;16.50;1.00;;;;;;5005425;28;20474;-80
2022/09/01 01:49:03;;;;;;;5.70;1.50;;;16.40;1.00;;;;;;5003725;28;21323;-82
2022/09/01 01:51:35;;;;;;;5.00;1.37;;;16.40;1.00;;;;;;5006742;28;20450;-82
2022/09/01 01:54:04;;;;;;;4.90;1.27;;;16.40;1.00;;;;;;5005927;28;20489;-83
2022/09/01 01:56:36;;;;;;;8.00;2.00;;;16.30;1.00;;;;;;5005797;28;20463;-82
2022/09/01 01:59:15;;;;;;;6.70;1.50;;;16.30;1.00;;;;;;5012870;28;20477;-80
2022/09/01 02:01:42;;;;;;;5.37;1.40;;;16.20;1.00;;;;;;5011120;28;20430;-82
2022/09/01 02:04:13;;;;;;;6.13;1.73;;;16.20;1.00;;;;;;5010769;28;20417;-82
2022/09/01 02:06:43;;;;;;;6.97;1.57;;;16.10;1.00;;;;;;5008848;28;21057;-82
2022/09/01 02:09:16;;;;;;;5.57;1.43;;;16.10;1.00;;;;;;5007411;28;20536;-79
2022/09/01 02:11:55;;;;;;;6.13;1.50;;;16.10;1.00;;;;;;5000157;28;20542;-81
2022/09/01 02:14:28;;;;;;;6.43;1.67;;;16.10;1.00;;;;;;5008051;28;20537;-80
2022/09/01 02:16:55;;;;;;;6.90;1.23;;;16.10;1.00;;;;;;5003836;28;20461;-80
2022/09/01 02:19:22;;;;;;;7.50;1.53;;;16.10;1.00;;;;;;5011078;28;20506;-76
2022/09/01 02:21:53;;;;;;;5.10;1.40;;;16.10;1.00;;;;;;4999567;28;20414;-80
2022/09/01 02:24:20;;;;;;;5.03;1.50;;;16.10;1.00;;;;;;5005486;28;20504;-81
2022/09/01 02:26:51;;;;;;;6.97;1.37;;;16.00;1.00;;;;;;5004148;28;20511;-80
2022/09/01 02:29:20;;;;;;;5.23;1.27;;;16.00;1.00;;;;;;5006811;28;20485;-81
2022/09/01 02:31:50;;;;;;;7.17;1.70;;;16.00;1.00;;;;;;5003673;28;20411;-79
2022/09/01 02:34:19;;;;;;;6.67;1.70;;;16.00;1.00;;;;;;5007009;28;20470;-80
2022/09/01 02:36:53;;;;;;;6.00;1.10;;;16.00;1.00;;;;;;5005660;28;20466;-82
2022/09/01 02:39:22;;;;;;;6.57;1.70;;;16.00;1.00;;;;;;5007448;28;20424;-82
2022/09/01 02:41:52;;;;;;;5.00;1.40;;;15.90;1.00;;;;;;5001367;28;20450;-82
2022/09/01 02:44:20;;;;;;;5.13;1.40;;;16.00;1.00;;;;;;5000815;28;20426;-82
2022/09/01 02:46:49;;;;;;;7.90;2.17;;;16.00;1.00;;;;;;4997004;28;20545;-82
2022/09/01 02:49:18;;;;;;;5.10;1.30;;;15.90;1.00;;;;;;4997987;28;21043;-81
2022/09/01 02:51:52;;;;;;;5.17;1.30;;;15.90;1.00;;;;;;4998015;28;20556;-82
2022/09/01 02:54:23;;;;;;;5.23;1.40;;;15.80;1.00;;;;;;5005879;28;20439;-81
2022/09/01 02:56:53;;;;;;;6.47;2.07;;;15.80;1.00;;;;;;5000398;28;20474;-82
2022/09/01 02:59:29;;;;;;;6.10;1.90;;;15.70;1.00;;;;;;4995306;28;20480;-81
2022/09/01 03:01:56;;;;;;;5.10;1.50;;;15.60;1.00;;;;;;5005294;28;21168;-81
2022/09/01 03:04:34;;;;;;;6.70;2.73;;;15.50;1.00;;;;;;5001609;28;20463;-80
2022/09/01 03:07:01;;;;;;;5.83;1.70;;;15.40;1.00;;;;;;5002055;28;20824;-78
2022/09/01 03:09:31;;;;;;;9.70;1.77;;;15.20;1.00;;;;;;5003908;28;20466;-81
2022/09/01 03:11:59;;;;;;;5.63;1.73;;;15.20;1.00;;;;;;5005886;28;20454;-78
2022/09/01 03:14:29;;;;;;;5.57;1.60;;;15.10;1.00;;;;;;5006090;28;20431;-82
2022/09/01 03:16:59;;;;;;;6.80;1.40;;;15.00;1.00;;;;;;4989051;28;20439;-81
2022/09/01 03:19:40;;;;;;;7.37;1.80;;;14.90;1.00;;;;;;5004183;28;20439;-81
2022/09/01 03:22:12;;;;;;;6.37;2.07;;;14.90;1.00;;;;;;4999909;28;20427;-78
2022/09/01 03:24:41;;;;;;;6.10;1.87;;;14.80;1.00;;;;;;5000071;28;20542;-81
2022/09/01 03:27:17;;;;;;;6.50;2.00;;;14.80;1.00;;;;;;5002644;28;20637;-81
2022/09/01 03:29:43;;;;;;;7.93;2.20;;;14.70;1.00;;;;;;5000854;28;20541;-82
2022/09/01 03:32:14;;;;;;;6.83;2.37;;;14.70;1.00;;;;;;5003878;28;20439;-82
2022/09/01 03:34:41;;;;;;;6.50;2.03;;;14.70;1.00;;;;;;4999885;28;20486;-81
2022/09/01 03:37:11;;;;;;;7.90;2.50;;;14.60;1.00;;;;;;5006604;28;20479;-81
2022/09/01 03:39:39;;;;;;;6.10;2.00;;;14.60;1.00;;;;;;4998844;28;20537;-81
2022/09/01 03:42:18;;;;;;;6.83;2.07;;;14.50;1.00;;;;;;4999116;28;20450;-80
2022/09/01 03:44:48;;;;;;;10.80;5.73;;;14.50;1.00;;;;;;5000261;28;20542;-80
2022/09/01 03:47:15;;;;;;;11.57;3.17;;;14.50;1.00;;;;;;4995649;28;20415;-80
2022/09/01 03:49:44;;;;;;;6.60;2.03;;;14.40;1.00;;;;;;5004528;28;20518;-82
2022/09/01 03:52:14;;;;;;;6.00;2.00;;;14.30;1.00;;;;;;4999730;28;20462;-81
2022/09/01 03:54:41;;;;;;;6.73;2.60;;;14.30;1.00;;;;;;4998954;28;20470;-80
2022/09/01 03:57:10;;;;;;;6.80;1.97;;;14.30;1.00;;;;;;4999690;28;20919;-81
2022/09/01 03:59:44;;;;;;;7.33;2.40;;;14.30;1.00;;;;;;4991124;28;20476;-81
2022/09/01 04:02:13;;;;;;;7.27;2.33;;;14.20;1.00;;;;;;4991702;28;20475;-81
2022/09/01 04:04:41;;;;;;;6.17;2.00;;;14.20;1.00;;;;;;4986434;28;20462;-81
2022/09/01 04:07:21;;;;;;;6.70;2.17;;;14.20;1.00;;;;;;4994007;28;20471;-79
2022/09/01 04:09:53;;;;;;;9.90;2.53;;;14.10;1.00;;;;;;4995725;28;20482;-80
2022/09/01 04:12:21;;;;;;;12.20;6.93;;;14.10;1.00;;;;;;4995689;28;20541;-79
2022/09/01 04:14:53;;;;;;;7.23;2.17;;;14.00;1.00;;;;;;4994904;28;20471;-81
2022/09/01 04:20:12;;;;;;;6.80;2.63;;;14.00;1.00;;;;;;4997326;28;20491;-81
2022/09/01 04:22:47;;;;;;;7.63;3.10;;;14.00;1.00;;;;;;4995952;28;20450;-78
2022/09/01 04:25:15;;;;;;;7.83;2.63;;;14.00;1.00;;;;;;4996773;28;20422;-78
2022/09/01 04:27:44;;;;;;;7.00;2.83;;;13.90;1.00;;;;;;5007769;28;20425;-84
2022/09/01 04:30:11;;;;;;;6.30;2.40;;;13.90;1.00;;;;;;4999861;28;20995;-82
2022/09/01 04:32:45;;;;;;;6.10;2.27;;;14.00;1.00;;;;;;5007619;28;20469;-82
2022/09/01 04:35:15;;;;;;;6.77;2.37;;;14.00;1.00;;;;;;4996721;28;21777;-80
2022/09/01 04:37:46;;;;;;;7.07;2.73;;;13.90;1.00;;;;;;4999201;28;20442;-83
2022/09/01 04:40:29;;;;;;;7.90;2.77;;;13.90;1.00;;;;;;5002613;28;20558;-83
2022/09/01 04:42:56;;;;;;;13.97;3.07;;;13.90;1.00;;;;;;4998931;28;21234;-82
2022/09/01 04:45:26;;;;;;;9.07;3.97;;;13.90;1.00;;;;;;5002357;28;20403;-82
2022/09/01 04:47:55;;;;;;;7.40;2.50;;;13.90;1.00;;;;;;4986324;28;20466;-83
2022/09/01 04:50:26;;;;;;;5.97;2.10;;;13.90;1.00;;;;;;5003652;28;20419;-82
2022/09/01 04:52:53;;;;;;;8.27;3.13;;;13.80;1.00;;;;;;4996164;28;20449;-83
2022/09/01 04:55:20;;;;;;;6.97;2.60;;;13.90;1.00;;;;;;4997169;28;20449;-82
2022/09/01 04:57:53;;;;;;;6.10;2.60;;;13.90;1.00;;;;;;4991624;28;20457;-79
2022/09/01 05:00:26;;;;;;;9.63;2.87;;;13.90;1.00;;;;;;4987347;28;20513;-82
2022/09/01 05:03:03;;;;;;;9.70;4.83;;;13.90;1.00;;;;;;4996154;28;20486;-81
2022/09/01 05:05:43;;;;;;;6.80;2.40;;;13.90;1.00;;;;;;5003135;28;20467;-83
2022/09/01 05:08:13;;;;;;;10.37;5.00;;;13.90;1.00;;;;;;4998632;28;20977;-81
2022/09/01 05:10:46;;;;;;;6.87;2.83;;;13.90;1.00;;;;;;4996064;28;20435;-82
2022/09/01 05:13:16;;;;;;;9.00;3.00;;;14.00;1.00;;;;;;4996905;28;20550;-85
2022/09/01 05:15:47;;;;;;;9.60;3.03;;;14.00;1.00;;;;;;5001786;28;20432;-82
2022/09/01 05:18:23;;;;;;;9.40;3.27;;;14.10;1.00;;;;;;5004802;28;20431;-83
2022/09/01 05:20:51;;;;;;;8.07;2.97;;;14.10;1.00;;;;;;4999085;28;20426;-81
2022/09/01 05:23:27;;;;;;;12.67;4.67;;;14.20;1.00;;;;;;5005163;28;20489;-83
2022/09/01 05:25:55;;;;;;;6.80;2.50;;;14.20;1.00;;;;;;4998161;28;20541;-84
2022/09/01 05:28:25;;;;;;;6.17;2.93;;;14.20;1.00;;;;;;5009663;28;20463;-81
2022/09/01 05:30:53;;;;;;;7.00;2.97;;;14.30;1.00;;;;;;5000791;28;20541;-82
2022/09/01 05:33:24;;;;;;;9.23;3.60;;;14.40;1.00;;;;;;5003654;28;20414;-83
2022/09/01 05:35:59;;;;;;;6.80;2.80;;;14.50;1.00;;;;;;5002575;28;22556;-82
2022/09/01 05:38:26;;;;;;;9.63;4.60;;;14.50;1.00;;;;;;5004687;28;20471;-83
2022/09/01 05:40:57;;;;;;;8.23;2.87;;;14.50;1.00;;;;;;5002398;28;20604;-82
2022/09/01 05:43:29;;;;;;;9.30;3.30;;;14.60;1.00;;;;;;5007255;28;21300;-84
2022/09/01 05:45:57;;;;;;;11.07;3.57;;;14.70;1.00;;;;;;5003290;28;20492;-83
2022/09/01 05:48:36;;;;;;;9.10;3.67;;;14.80;1.00;;;;;;5008429;28;20463;-82
2022/09/01 05:51:07;;;;;;;9.80;3.50;;;14.80;1.00;;;;;;4968298;28;20462;-81
2022/09/01 05:53:36;;;;;;;9.07;3.77;;;14.90;1.00;;;;;;5006245;28;20434;-83
2022/09/01 05:56:25;;;;;;;7.27;2.70;;;15.00;1.00;;;;;;4982347;28;20417;-84
2022/09/01 05:58:52;;;;;;;10.37;3.93;;;15.10;1.00;;;;;;4992768;28;21031;-81
2022/09/01 06:01:25;;;;;;;9.87;4.27;;;15.20;1.00;;;;;;5003626;28;20506;-82
2022/09/01 06:04:05;;;;;;;9.60;3.47;;;15.30;1.00;;;;;;4998465;28;20458;-82
2022/09/01 06:06:37;;;;;;;16.00;4.50;;;15.30;1.00;;;;;;5000431;28;20437;-84
2022/09/01 06:09:06;;;;;;;9.97;3.47;;;15.40;1.00;;;;;;5005668;28;20443;-82
2022/09/01 06:11:33;;;;;;;12.00;3.20;;;15.40;1.00;;;;;;5005207;28;21222;-81
2022/09/01 06:14:09;;;;;;;12.77;3.77;;;15.50;1.00;;;;;;5007066;28;20455;-83
2022/09/01 06:16:37;;;;;;;14.20;5.10;;;15.60;1.00;;;;;;5006842;28;20532;-80
2022/09/01 06:19:11;;;;;;;10.00;4.37;;;15.60;1.00;;;;;;4993774;28;20428;-80
2022/09/01 06:21:44;;;;;;;9.33;3.50;;;15.70;1.00;;;;;;5008498;28;20451;-81
2022/09/01 06:24:16;;;;;;;7.87;2.83;;;15.80;1.00;;;;;;5001611;28;20479;-82
2022/09/01 06:26:45;;;;;;;7.90;3.50;;;15.90;1.00;;;;;;5009747;28;20432;-84
2022/09/01 06:29:14;;;;;;;9.30;3.07;;;15.90;1.00;;;;;;5008381;28;20487;-82
2022/09/01 06:31:50;;;;;;;6.90;2.80;;;15.90;1.00;;;;;;5004907;28;20428;-81
2022/09/01 06:34:25;;;;;;;8.80;2.87;;;16.10;1.00;;;;;;5009358;28;20461;-81
2022/09/01 06:36:52;;;;;;;7.73;2.40;;;16.20;1.00;;;;;;5004217;28;20439;-81
2022/09/01 06:39:25;;;;;;;6.37;2.50;;;16.20;1.00;;;;;;5002552;28;20469;-80
2022/09/01 06:41:53;;;;;;;10.67;2.43;;;16.30;1.00;;;;;;5013536;28;20542;-81
2022/09/01 06:44:26;;;;;;;5.47;2.00;;;16.40;1.00;;;;;;5005705;28;20463;-81
2022/09/01 06:46:53;;;;;;;5.87;2.10;;;16.50;1.00;;;;;;5005162;28;20497;-80
2022/09/01 06:49:31;;;;;;;6.33;1.87;;;16.60;1.00;;;;;;5007021;28;20495;-84
2022/09/01 06:52:01;;;;;;;6.77;2.53;;;16.70;1.00;;;;;;5007068;28;20554;-83
2022/09/01 06:54:30;;;;;;;9.00;2.63;;;16.80;1.00;;;;;;5003407;28;20469;-83
2022/09/01 06:56:58;;;;;;;8.20;3.07;;;16.80;1.00;;;;;;5006819;28;20989;-83
2022/09/01 06:59:30;;;;;;;9.53;2.60;;;16.90;1.00;;;;;;5005882;28;20526;-82
2022/09/01 07:02:00;;;;;;;19.57;3.17;;;17.00;1.00;;;;;;5007346;28;20477;-82
2022/09/01 07:04:38;;;;;;;6.63;2.30;;;17.10;1.00;;;;;;5004356;28;20471;-85
2022/09/01 07:07:12;;;;;;;8.33;2.23;;;17.20;1.00;;;;;;4962011;28;20466;-84
2022/09/01 07:09:55;;;;;;;6.20;2.10;;;17.30;1.00;;;;;;4986549;28;20465;-84
2022/09/01 07:12:27;;;;;;;5.80;1.70;;;17.40;1.00;;;;;;4977521;28;20540;-84
2022/09/01 07:14:57;;;;;;;6.30;1.80;;;17.50;1.00;;;;;;4977168;28;20496;-84
2022/09/01 07:17:36;;;;;;;;;;;;;;;;;;;;;
2022/09/01 07:20:06;;;;;;;5.33;1.63;;;17.60;1.00;;;;;;4989155;28;50263;-80
2022/09/01 07:22:35;;;;;;;6.00;1.90;;;17.70;1.00;;;;;;5004304;28;20427;-81
2022/09/01 07:25:02;;;;;;;6.30;1.97;;;17.90;1.00;;;;;;5007341;28;20431;-85
2022/09/01 07:27:34;;;;;;;7.20;1.80;;;17.80;1.00;;;;;;5005981;28;20466;-81
2022/09/01 07:30:02;;;;;;;9.00;3.70;;;17.90;1.00;;;;;;5000608;28;20548;-81
2022/09/01 07:32:33;;;;;;;6.07;2.90;;;18.10;1.00;;;;;;5000505;28;20560;-76
2022/09/01 07:35:00;;;;;;;6.97;2.17;;;18.20;1.00;;;;;;5000389;28;20482;-77
2022/09/01 07:37:30;;;;;;;7.53;2.50;;;18.30;1.00;;;;;;4997065;28;20427;-75
2022/09/01 07:39:58;;;;;;;7.43;1.73;;;18.40;1.00;;;;;;4996210;28;20455;-82
2022/09/01 07:42:27;;;;;;;5.90;3.20;;;18.50;1.00;;;;;;5003496;28;21396;-83
2022/09/01 07:44:57;;;;;;;6.53;3.00;;;18.70;1.00;;;;;;5004496;28;20422;-83
2022/09/01 07:47:24;;;;;;;5.77;1.40;;;18.90;1.00;;;;;;5012770;28;20471;-81
2022/09/01 07:49:54;;;;;;;6.83;1.77;;;19.00;1.00;;;;;;5003300;28;20447;-79
2022/09/01 07:52:30;;;;;;;5.80;1.50;;;19.00;1.00;;;;;;4998974;28;21007;-77
2022/09/01 07:55:04;;;;;;;5.80;2.03;;;19.00;1.00;;;;;;4998736;28;20554;-77
2022/09/01 07:57:45;;;;;;;7.50;1.67;;;18.90;1.00;;;;;;5003402;28;20874;-82
2022/09/01 08:00:17;;;;;;;5.03;1.50;;;19.00;1.00;;;;;;5000641;28;20504;-82
2022/09/01 08:02:45;;;;;;;5.70;1.53;;;19.10;1.00;;;;;;4999236;28;20431;-81
2022/09/01 08:05:16;;;;;;;7.43;2.23;;;19.10;1.00;;;;;;4996703;28;20499;-81
2022/09/01 08:07:47;;;;;;;7.83;1.93;;;19.20;1.00;;;;;;5000670;28;20450;-79
2022/09/01 08:10:16;;;;;;;5.43;1.50;;;19.20;1.00;;;;;;5005157;28;20496;-81
2022/09/01 08:12:43;;;;;;;6.60;2.03;;;19.40;1.00;;;;;;4995440;28;20474;-81
2022/09/01 08:15:34;;;;;;;4.90;1.40;;;19.60;1.00;;;;;;4998904;28;20442;-77
2022/09/01 08:18:03;;;;;;;5.37;1.33;;;19.70;1.00;;;;;;4999607;28;20466;-77
2022/09/01 08:20:38;;;;;;;6.23;1.10;;;19.70;1.00;;;;;;4999740;28;20510;-79
2022/09/01 08:23:06;;;;;;;5.07;1.40;;;19.80;1.00;;;;;;5006813;28;20474;-80
2022/09/01 08:25:39;;;;;;;4.80;1.40;;;19.80;1.00;;;;;;5004447;28;20482;-82
2022/09/01 08:28:06;;;;;;;6.23;1.83;;;19.90;1.00;;;;;;4997315;28;20993;-81
2022/09/01 08:30:35;;;;;;;8.03;2.37;;;20.00;1.00;;;;;;5007025;28;20483;-80
2022/09/01 08:33:02;;;;;;;10.57;2.03;;;20.10;1.00;;;;;;4998264;28;20481;-82
2022/09/01 08:35:34;;;;;;;8.10;1.57;;;20.10;1.00;;;;;;5002642;28;20455;-82
2022/09/01 08:38:04;;;;;;;7.00;1.87;;;20.10;1.00;;;;;;5001171;28;20550;-82
2022/09/01 08:40:31;;;;;;;7.03;1.50;;;20.20;1.00;;;;;;5003482;28;20438;-80
2022/09/01 08:43:25;;;;;;;5.93;1.90;;;20.30;1.00;;;;;;5002473;28;20427;-83
2022/09/01 08:45:55;;;;;;;5.00;1.03;;;20.40;1.00;;;;;;4987638;28;20434;-81
2022/09/01 08:48:31;;;;;;;5.60;1.50;;;20.40;1.00;;;;;;5001303;28;20486;-82
2022/09/01 08:51:11;;;;;;;6.30;1.50;;;20.50;1.00;;;;;;5006980;28;20506;-80
2022/09/01 08:53:49;;;;;;;6.83;1.93;;;20.60;1.00;;;;;;5000955;28;20543;-78
2022/09/01 08:56:23;;;;;;;13.10;5.23;;;20.70;1.00;;;;;;4999184;28;21233;-82
2022/09/01 08:58:52;;;;;;;5.30;1.20;;;20.60;1.00;;;;;;4997885;28;20559;-81
2022/09/01 09:01:29;;;;;;;8.83;2.10;;;20.70;1.00;;;;;;5016169;28;20530;-81
2022/09/01 09:04:14;;;;;;;5.40;1.20;;;20.80;1.00;;;;;;5002526;28;20471;-83
2022/09/01 09:06:57;;;;;;;5.00;1.20;;;20.80;1.00;;;;;;4998907;28;20455;-83
2022/09/01 09:09:35;;;;;;;8.37;1.40;;;20.90;1.00;;;;;;5004611;28;20438;-81
2022/09/01 09:12:28;;;;;;;6.37;1.77;;;21.10;1.00;;;;;;4999026;28;20471;-81
2022/09/01 09:15:11;;;;;;;4.93;1.33;;;21.20;1.00;;;;;;4994484;28;20553;-82
2022/09/01 09:17:47;;;;;;;5.90;1.40;;;21.40;1.00;;;;;;5004482;28;20473;-81
2022/09/01 09:20:17;;;;;;;8.60;2.70;;;21.50;1.00;;;;;;4995806;28;20970;-84
2022/09/01 09:22:48;;;;;;;5.73;2.17;;;21.70;1.00;;;;;;4999562;28;20434;-84
2022/09/01 09:25:19;;;;;;;5.30;1.50;;;22.00;1.00;;;;;;4997437;28;20447;-81
2022/09/01 09:27:48;;;;;;;6.00;1.47;;;22.20;1.00;;;;;;5004648;28;20423;-80
2022/09/01 09:30:22;;;;;;;4.97;1.33;;;22.90;1.00;;;;;;5005499;28;20478;-81
2022/09/01 09:32:59;;;;;;;6.70;1.70;;;23.70;1.00;;;;;;4997075;28;20518;-82
2022/09/01 09:35:35;;;;;;;6.20;1.60;;;25.40;1.00;;;;;;5000400;28;20501;-85
2022/09/01 09:38:21;;;;;;;5.80;1.50;;;26.30;1.00;;;;;;4990641;28;20503;-76
2022/09/01 09:41:00;;;;;;;7.23;1.50;;;26.50;1.00;;;;;;4999382;28;20523;-78
2022/09/01 09:43:29;;;;;;;6.60;1.10;;;26.40;1.00;;;;;;4994193;28;21233;-77
2022/09/01 09:46:25;;;;;;;5.67;1.33;;;26.30;1.00;;;;;;5000041;28;20473;-77
2022/09/01 09:49:14;;;;;;;5.87;1.37;;;26.80;1.00;;;;;;4995206;28;20424;-77
2022/09/01 09:51:43;;;;;;;7.43;2.03;;;26.10;1.00;;;;;;4994340;28;20466;-75
2022/09/01 09:54:22;;;;;;;6.67;1.90;;;25.50;1.00;;;;;;4982454;28;20971;-78
2022/09/01 09:57:09;;;;;;;7.33;1.40;;;24.90;1.00;;;;;;4996813;28;20554;-76
2022/09/01 09:59:42;;;;;;;6.73;1.60;;;24.60;1.00;;;;;;4996263;28;20460;-78
2022/09/01 10:02:27;;;;;;;6.07;1.40;;;24.00;1.00;;;;;;4999113;28;20470;-79
2022/09/01 10:04:56;;;;;;;5.10;1.47;;;23.60;1.00;;;;;;4998962;28;20483;-77
2022/09/01 10:07:44;;;;;;;6.80;1.30;;;23.60;1.00;;;;;;4998025;28;20933;-78
2022/09/01 10:10:35;;;;;;;4.83;1.20;;;24.00;1.00;;;;;;4978602;28;20427;-78
2022/09/01 10:13:02;;;;;;;5.50;1.33;;;25.20;1.00;;;;;;4998270;28;20459;-77
2022/09/01 10:15:35;;;;;;;5.97;1.30;;;24.90;1.00;;;;;;4995382;28;20474;-78
2022/09/01 10:18:09;;;;;;;6.33;1.10;;;24.40;1.00;;;;;;4976468;28;20577;-78
2022/09/01 10:20:39;;;;;;;4.93;1.30;;;24.50;1.00;;;;;;4998289;28;20496;-78
2022/09/01 10:23:06;;;;;;;4.40;1.00;;;25.40;1.00;;;;;;5000411;28;20484;-78
2022/09/01 10:25:36;;;;;;;5.23;1.20;;;25.50;1.00;;;;;;4996924;28;20483;-77
2022/09/01 10:28:14;;;;;;;6.20;1.40;;;24.90;1.00;;;;;;5001951;28;20472;-76
2022/09/01 10:30:47;;;;;;;6.60;2.20;;;25.90;1.00;;;;;;5004083;28;20891;-77
2022/09/01 10:33:19;;;;;;;4.40;0.90;;;28.10;1.00;;;;;;4999668;28;20451;-76
2022/09/01 10:35:49;;;;;;;5.70;1.30;;;29.20;1.00;;;;;;5002787;28;20474;-78
2022/09/01 10:38:21;;;;;;;5.70;1.30;;;29.00;1.00;;;;;;5004218;28;20478;-77
2022/09/01 10:41:05;;;;;;;5.63;1.00;;;27.70;1.00;;;;;;5000690;28;20981;-77
2022/09/01 10:43:41;;;;;;;6.07;1.70;;;26.50;1.00;;;;;;4999741;28;20451;-77
2022/09/01 10:46:43;;;;;;;4.80;1.30;;;25.50;1.00;;;;;;4995820;28;21276;-75
2022/09/01 10:49:43;;;;;;;4.80;0.90;;;24.70;1.00;;;;;;4991730;28;20470;-77
2022/09/01 10:52:14;;;;;;;6.87;1.70;;;24.30;1.00;;;;;;4996183;28;20459;-78
2022/09/01 10:55:02;;;;;;;5.00;1.10;;;26.90;1.00;;;;;;4997960;28;20435;-79
2022/09/01 10:57:44;;;;;;;5.90;1.10;;;29.80;1.00;;;;;;5000975;28;21015;-78
2022/09/01 11:00:48;;;;;;;7.53;1.70;;;31.30;1.00;;;;;;4985880;28;20442;-78
2022/09/01 11:03:56;;;;;;;5.67;1.10;;;33.10;1.00;;;;;;4918689;29;20430;-77
2022/09/01 11:07:01;;;;;;;6.70;1.90;;;32.80;1.00;;;;;;4920632;28;22174;-78
2022/09/01 11:09:35;;;;;;;6.67;1.20;;;32.10;1.00;;;;;;4998776;28;20466;-75
2022/09/01 11:12:38;;;;;;;4.33;1.37;;;33.40;1.00;;;;;;4996286;28;20927;-78
2022/09/01 11:15:28;;;;;;;7.40;1.90;;;33.40;1.00;;;;;;4990550;28;20497;-75
2022/09/01 11:17:59;;;;;;;4.60;1.10;;;32.60;1.00;;;;;;4993343;28;20486;-78
2022/09/01 11:20:30;;;;;;;5.73;1.30;;;30.80;1.00;;;;;;5001071;28;20455;-76
2022/09/01 11:23:06;;;;;;;6.03;1.20;;;29.10;1.00;;;;;;4998782;28;20506;-79
2022/09/01 11:25:42;;;;;;;4.70;1.00;;;27.80;1.00;;;;;;4995860;28;20481;-79
2022/09/01 11:28:45;;;;;;;7.17;1.40;;;26.80;1.00;;;;;;5003015;28;20459;-77
2022/09/01 11:31:29;;;;;;;8.17;1.37;;;26.70;1.00;;;;;;4979885;28;20944;-77
2022/09/01 11:34:16;;;;;;;5.37;1.30;;;28.70;1.00;;;;;;4986473;28;20859;-76
2022/09/01 11:36:53;;;;;;;4.50;1.10;;;29.40;1.00;;;;;;4995926;28;20432;-77
2022/09/01 11:39:45;;;;;;;5.93;1.10;;;28.90;1.00;;;;;;4998949;28;20596;-79
2022/09/01 11:42:18;;;;;;;4.50;0.90;;;29.10;1.00;;;;;;4998435;28;20485;-78
2022/09/01 11:44:58;;;;;;;5.47;1.27;;;28.80;1.00;;;;;;5000859;28;20525;-78
2022/09/01 11:47:31;;;;;;;4.47;0.90;;;28.00;1.00;;;;;;5000220;28;20427;-78
2022/09/01 11:50:01;;;;;;;4.50;0.90;;;27.00;1.00;;;;;;4994094;28;20524;-78
2022/09/01 11:52:30;;;;;;;5.13;1.20;;;26.20;1.00;;;;;;4997488;28;20470;-78
2022/09/01 11:54:59;;;;;;;28.53;21.17;;;25.60;1.00;;;;;;4995636;28;20519;-77
2022/09/01 11:57:29;;;;;;;6.03;1.00;;;25.30;1.00;;;;;;4990342;28;20454;-77
2022/09/01 11:59:59;;;;;;;8.10;3.33;;;24.90;1.00;;;;;;4984881;28;20414;-78
2022/09/01 12:02:32;;;;;;;5.70;1.40;;;24.70;1.00;;;;;;4996159;28;20466;-77
2022/09/01 12:05:27;;;;;;;5.33;1.70;;;24.30;1.00;;;;;;4996444;28;20636;-76
2022/09/01 12:08:02;;;;;;;5.07;1.50;;;24.10;1.00;;;;;;4996512;28;20443;-78
2022/09/01 12:10:33;;;;;;;8.07;3.70;;;25.60;1.00;;;;;;4998425;28;20936;-79
2022/09/01 12:13:03;;;;;;;5.63;1.50;;;27.80;1.00;;;;;;4997651;28;21304;-77
2022/09/01 12:15:37;;;;;;;6.10;2.40;;;28.10;1.00;;;;;;4997249;28;20475;-78
2022/09/01 12:18:19;;;;;;;6.00;1.60;;;27.40;1.00;;;;;;4996666;28;20464;-78
2022/09/01 12:20:48;;;;;;;5.93;1.43;;;26.60;1.00;;;;;;4994574;28;20469;-77
2022/09/01 12:23:24;;;;;;;7.00;2.03;;;25.70;1.00;;;;;;5000425;28;20804;-79
2022/09/01 12:26:12;;;;;;;4.93;1.07;;;24.90;1.00;;;;;;4992934;28;20901;-79
2022/09/01 12:28:40;;;;;;;5.47;1.20;;;24.20;1.00;;;;;;5002964;28;20485;-78
2022/09/01 12:31:17;;;;;;;5.83;1.10;;;23.90;1.00;;;;;;5001215;28;20491;-77
2022/09/01 12:33:45;;;;;;;6.17;1.40;;;23.60;1.00;;;;;;4997352;28;20532;-80
2022/09/01 12:36:32;;;;;;;6.80;2.23;;;23.30;1.00;;;;;;5005286;28;21380;-79
2022/09/01 12:39:24;;;;;;;5.53;1.30;;;23.30;1.00;;;;;;5000734;28;20463;-78
2022/09/01 12:42:08;;;;;;;5.60;1.63;;;23.40;1.00;;;;;;5006003;28;20549;-78
2022/09/01 12:44:46;;;;;;;5.73;1.60;;;23.40;1.00;;;;;;4999822;28;20458;-80
2022/09/01 12:47:35;;;;;;;5.23;1.53;;;23.50;1.00;;;;;;5003078;28;20480;-77
2022/09/01 12:50:05;;;;;;;16.53;2.27;;;23.50;1.00;;;;;;4994273;28;20482;-77
2022/09/01 12:52:34;;;;;;;6.30;1.87;;;23.70;1.00;;;;;;4997407;28;20461;-80
2022/09/01 12:55:16;;;;;;;8.87;2.47;;;23.80;1.00;;;;;;5003072;28;20423;-79
2022/09/01 12:57:55;;;;;;;7.73;1.63;;;24.00;1.00;;;;;;4997114;28;20502;-77
2022/09/01 13:00:24;;;;;;;6.57;1.80;;;24.10;1.00;;;;;;5000389;28;20545;-78
2022/09/01 13:03:16;;;;;;;7.37;1.77;;;24.20;1.00;;;;;;4998869;28;20411;-78
2022/09/01 13:05:45;;;;;;;5.63;1.40;;;24.60;1.00;;;;;;4999148;28;20459;-78
2022/09/01 13:08:19;;;;;;;5.30;1.30;;;25.10;1.00;;;;;;4995361;28;20485;-77
2022/09/01 13:10:48;;;;;;;7.23;1.30;;;26.10;1.00;;;;;;4996611;28;20424;-78
2022/09/01 13:13:23;;;;;;;5.50;1.60;;;27.60;1.00;;;;;;5002975;28;20478;-80
2022/09/01 13:15:55;;;;;;;6.07;1.73;;;28.20;1.00;;;;;;5004942;28;20553;-80
2022/09/01 13:18:30;;;;;;;5.53;1.00;;;28.20;1.00;;;;;;5001627;28;20449;-77
2022/09/01 13:20:57;;;;;;;6.07;1.20;;;28.90;1.00;;;;;;4995828;28;20453;-80
2022/09/01 13:23:25;;;;;;;5.77;1.30;;;29.10;1.00;;;;;;5001525;28;20446;-77
2022/09/01 13:25:52;;;;;;;5.23;0.90;;;28.30;1.00;;;;;;5003455;28;20435;-77
2022/09/01 13:28:30;;;;;;;8.43;1.70;;;27.50;1.00;;;;;;4994934;28;20477;-80
2022/09/01 13:31:03;;;;;;;5.03;1.30;;;26.80;1.00;;;;;;4998919;28;20928;-77
2022/09/01 13:33:35;;;;;;;5.13;1.67;;;26.20;1.00;;;;;;4991967;28;20590;-76
2022/09/01 13:36:06;;;;;;;5.03;1.60;;;25.80;1.00;;;;;;5002978;28;20410;-76